createdAt,value
2022-08-08T00:00:50.793Z,48.95
2022-08-08T00:02:33.238Z,48.06
2022-08-08T00:05:44.095Z,47.75
2022-08-08T00:08:33.698Z,48.73
2022-08-08T00:11:13.287Z,48.03
2022-08-08T00:14:17.043Z,47.63
2022-08-08T00:17:23.486Z,47.62
2022-08-08T00:20:14.654Z,47.70
2022-08-08T00:22:48.591Z,48.14
2022-08-08T00:25:21.650Z,50.19
2022-08-08T00:27:53.034Z,49.33
2022-08-08T00:30:24.179Z,49.22
2022-08-08T00:33:11.483Z,49.78
2022-08-08T00:35:53.524Z,49.38
2022-08-08T00:38:57.375Z,49.11
2022-08-08T00:41:54.527Z,49.32
2022-08-08T00:45:21.461Z,50.16
2022-08-08T00:48:06.422Z,49.73
2022-08-08T00:50:40.671Z,50.45
2022-08-08T00:53:14.117Z,50.07
2022-08-08T00:56:16.272Z,50.36
2022-08-08T00:59:18.679Z,50.23
2022-08-08T01:03:15.404Z,51.76
2022-08-08T01:05:58.533Z,51.60
2022-08-08T01:08:46.785Z,51.62
2022-08-08T01:11:37.774Z,50.83
2022-08-08T01:14:53.488Z,50.96
2022-08-08T01:17:19.470Z,51.36
2022-08-08T01:20:21.939Z,51.09
2022-08-08T01:23:07.545Z,51.26
2022-08-08T01:26:24.842Z,50.97
2022-08-08T01:29:24.126Z,51.38
2022-08-08T01:32:30.477Z,51.85
2022-08-08T01:35:29.832Z,52.51
2022-08-08T01:38:25.137Z,52.19
2022-08-08T01:41:26.680Z,53.00
2022-08-08T01:44:09.771Z,52.75
2022-08-08T01:46:52.845Z,52.99
2022-08-08T01:50:17.128Z,53.61
2022-08-08T01:54:18.314Z,55.21
2022-08-08T01:56:27.640Z,53.29
2022-08-08T01:59:07.811Z,53.62
2022-08-08T02:02:32.255Z,53.18
2022-08-08T02:05:12.893Z,52.79
2022-08-08T02:08:06.914Z,55.49
2022-08-08T02:10:55.419Z,55.00
2022-08-08T02:13:52.889Z,53.37
2022-08-08T02:16:28.558Z,52.14
2022-08-08T02:19:56.899Z,52.04
2022-08-08T02:22:31.374Z,52.42
2022-08-08T02:25:22.797Z,52.18
2022-08-08T02:28:17.493Z,52.55
2022-08-08T02:30:49.964Z,52.53
2022-08-08T02:33:41.386Z,54.06
2022-08-08T02:36:20.198Z,52.97
2022-08-08T02:39:42.080Z,53.79
2022-08-08T02:42:35.842Z,53.82
2022-08-08T02:45:18.622Z,55.38
2022-08-08T02:48:17.975Z,54.03
2022-08-08T02:50:56.264Z,54.50
2022-08-08T02:53:54.668Z,54.99
2022-08-08T02:56:59.681Z,54.24
2022-08-08T02:59:57.468Z,54.13
2022-08-08T03:02:50.503Z,53.91
2022-08-08T03:05:47.380Z,54.17
2022-08-08T03:08:25.892Z,53.66
2022-08-08T03:11:29.373Z,55.31
2022-08-08T03:15:57.188Z,54.60
2022-08-08T03:17:38.950Z,53.87
2022-08-08T03:20:08.049Z,55.41
2022-08-08T03:22:47.690Z,55.21
2022-08-08T03:25:18.411Z,54.59
2022-08-08T03:27:56.266Z,54.98
2022-08-08T03:30:24.001Z,55.71
2022-08-08T03:33:55.886Z,54.75
2022-08-08T03:35:57.271Z,55.79
2022-08-08T03:38:54.930Z,56.06
2022-08-08T03:42:13.224Z,55.56
2022-08-08T03:43:59.603Z,55.27
2022-08-08T03:46:32.501Z,55.09
2022-08-08T03:49:30.909Z,55.43
2022-08-08T03:51:56.989Z,56.02
2022-08-08T03:54:43.767Z,55.97
2022-08-08T03:58:33.347Z,55.45
2022-08-08T04:00:11.161Z,55.11
2022-08-08T04:02:47.320Z,55.44
2022-08-08T04:05:14.638Z,55.23
2022-08-08T04:07:46.401Z,55.73
2022-08-08T04:10:12.906Z,55.59
2022-08-08T04:12:41.344Z,55.10
2022-08-08T04:15:08.463Z,55.68
2022-08-08T04:17:46.756Z,56.67
2022-08-08T04:20:28.218Z,60.34
2022-08-08T04:22:57.117Z,61.73
2022-08-08T04:25:29.744Z,60.57
2022-08-08T04:28:02.307Z,62.25
2022-08-08T04:30:44.694Z,62.08
2022-08-08T04:33:11.550Z,61.12
2022-08-08T04:35:40.524Z,61.92
2022-08-08T04:38:20.994Z,59.63
2022-08-08T04:40:51.788Z,59.78
2022-08-08T04:43:22.149Z,58.75
2022-08-08T04:45:50.181Z,59.07
2022-08-08T04:48:17.490Z,58.96
2022-08-08T04:50:48.777Z,61.04
2022-08-08T04:54:37.137Z,59.50
2022-08-08T04:56:04.149Z,59.12
2022-08-08T04:58:31.090Z,61.37
2022-08-08T05:00:57.730Z,58.75
2022-08-08T05:04:07.994Z,58.97
2022-08-08T05:06:13.295Z,59.72
2022-08-08T05:08:46.119Z,58.06
2022-08-08T05:11:23.712Z,57.78
2022-08-08T05:13:57.597Z,56.92
2022-08-08T05:16:52.686Z,58.26
2022-08-08T05:20:09.692Z,57.02
2022-08-08T05:22:01.421Z,57.30
2022-08-08T05:24:27.980Z,57.20
2022-08-08T05:26:58.259Z,56.51
2022-08-08T05:29:29.183Z,55.95
2022-08-08T05:32:03.083Z,56.63
2022-08-08T05:34:36.307Z,56.77
2022-08-08T05:37:15.938Z,56.25
2022-08-08T05:39:49.869Z,56.67
2022-08-08T05:42:19.503Z,55.73
2022-08-08T05:44:52.992Z,56.93
2022-08-08T05:47:22.024Z,55.16
2022-08-08T05:49:56.060Z,55.27
2022-08-08T05:52:35.649Z,54.59
2022-08-08T05:55:10.181Z,55.06
2022-08-08T05:58:05.590Z,57.43
2022-08-08T06:00:33.947Z,54.83
2022-08-08T06:03:17.377Z,56.25
2022-08-08T06:06:06.434Z,55.75
2022-08-08T06:08:53.044Z,53.77
2022-08-08T06:11:21.620Z,53.51
2022-08-08T06:13:49.299Z,51.66
2022-08-08T06:16:18.965Z,51.22
2022-08-08T06:18:47.662Z,50.97
2022-08-08T06:21:32.903Z,47.34
2022-08-08T06:24:13.695Z,45.87
2022-08-08T06:27:02.400Z,48.00
2022-08-08T06:30:00.314Z,45.93
2022-08-08T06:32:28.407Z,45.18
2022-08-08T06:36:03.828Z,44.07
2022-08-08T06:37:55.708Z,46.09
2022-08-08T06:40:25.859Z,44.53
2022-08-08T06:42:59.226Z,42.22
2022-08-08T06:45:27.650Z,42.29
2022-08-08T06:48:00.715Z,44.48
2022-08-08T06:50:32.256Z,42.23
2022-08-08T06:53:13.795Z,44.13
2022-08-08T06:55:42.116Z,43.15
2022-08-08T06:58:10.081Z,43.69
2022-08-08T07:00:40.746Z,42.11
2022-08-08T07:03:19.517Z,44.52
2022-08-08T07:06:03.385Z,41.31
2022-08-08T07:08:37.157Z,42.87
2022-08-08T07:11:05.290Z,41.97
2022-08-08T07:14:01.015Z,40.13
2022-08-08T07:17:09.318Z,40.76
2022-08-08T07:19:59.825Z,38.10
2022-08-08T07:22:47.219Z,36.83
2022-08-08T07:25:19.382Z,38.65
2022-08-08T07:28:02.871Z,38.41
2022-08-08T07:30:35.074Z,38.26
2022-08-08T07:33:01.825Z,38.16
2022-08-08T07:35:29.369Z,37.65
2022-08-08T07:38:08.377Z,36.38
2022-08-08T07:40:37.582Z,38.17
2022-08-08T07:43:09.658Z,36.87
2022-08-08T07:46:05.523Z,36.35
2022-08-08T07:48:23.672Z,36.67
2022-08-08T07:50:54.891Z,35.63
2022-08-08T07:54:01.933Z,36.09
2022-08-08T07:56:35.716Z,36.58
2022-08-08T07:59:10.423Z,34.67
2022-08-08T08:02:32.844Z,34.76
2022-08-08T08:04:39.856Z,33.25
2022-08-08T08:07:08.792Z,31.39
2022-08-08T08:09:40.027Z,31.75
2022-08-08T08:12:09.924Z,31.57
2022-08-08T08:15:06.711Z,31.01
2022-08-08T08:17:47.630Z,30.43
2022-08-08T08:20:16.282Z,29.44
2022-08-08T08:22:43.286Z,29.37
2022-08-08T08:25:09.781Z,28.96
2022-08-08T08:27:37.000Z,29.29
2022-08-08T08:30:05.854Z,28.33
2022-08-08T08:32:36.394Z,28.87
2022-08-08T08:35:08.111Z,29.92
2022-08-08T08:37:53.039Z,30.94
2022-08-08T08:40:22.567Z,30.97
2022-08-08T08:42:49.677Z,30.87
2022-08-08T08:45:22.660Z,29.85
2022-08-08T08:47:54.911Z,31.80
2022-08-08T08:50:32.793Z,30.91
2022-08-08T08:53:28.263Z,29.07
2022-08-08T08:56:01.158Z,30.74
2022-08-08T08:58:37.888Z,30.17
2022-08-08T09:01:10.154Z,29.06
2022-08-08T09:03:51.464Z,29.42
2022-08-08T09:06:26.660Z,29.61
2022-08-08T09:09:35.413Z,27.91
2022-08-08T09:12:08.227Z,28.07
2022-08-08T09:14:35.771Z,28.10
2022-08-08T09:17:15.710Z,27.74
2022-08-08T09:21:58.687Z,27.13
2022-08-08T09:22:31.729Z,26.93
2022-08-08T09:24:58.571Z,27.70
2022-08-08T09:27:56.167Z,28.43
2022-08-08T09:30:22.245Z,29.16
2022-08-08T09:33:54.323Z,29.31
2022-08-08T09:35:49.716Z,29.43
2022-08-08T09:38:32.105Z,29.01
2022-08-08T09:41:05.236Z,28.70
2022-08-08T09:43:40.843Z,26.75
2022-08-08T09:46:25.505Z,28.04
2022-08-08T09:49:18.143Z,27.64
2022-08-08T09:52:06.261Z,26.86
2022-08-08T09:54:45.028Z,26.62
2022-08-08T09:57:19.734Z,26.92
2022-08-08T10:00:34.082Z,27.26
2022-08-08T10:02:47.031Z,27.39
2022-08-08T10:05:25.046Z,27.58
2022-08-08T10:07:52.248Z,28.02
2022-08-08T10:10:31.882Z,26.92
2022-08-08T10:13:14.045Z,27.23
2022-08-08T10:16:00.464Z,27.04
2022-08-08T10:18:35.938Z,27.07
2022-08-08T10:21:25.014Z,26.19
2022-08-08T10:23:57.907Z,25.96
2022-08-08T10:26:57.070Z,26.72
2022-08-08T10:29:23.586Z,26.40
2022-08-08T10:32:15.765Z,26.36
2022-08-08T10:34:55.536Z,27.50
2022-08-08T10:37:37.555Z,25.67
2022-08-08T10:40:15.969Z,25.83
2022-08-08T10:42:44.882Z,27.07
2022-08-08T10:45:12.327Z,25.92
2022-08-08T10:47:53.651Z,26.54
2022-08-08T10:50:30.942Z,25.50
2022-08-08T10:53:11.835Z,26.25
2022-08-08T10:55:46.768Z,26.07
2022-08-08T10:58:13.696Z,27.25
2022-08-08T11:00:53.281Z,26.14
2022-08-08T11:03:37.147Z,26.21
2022-08-08T11:06:15.811Z,25.03
2022-08-08T11:08:50.147Z,25.41
2022-08-08T11:11:31.994Z,25.77
2022-08-08T11:14:12.436Z,25.43
2022-08-08T11:16:46.915Z,27.28
2022-08-08T11:19:15.686Z,25.78
2022-08-08T11:21:55.642Z,25.33
2022-08-08T11:24:26.174Z,26.03
2022-08-08T11:26:56.465Z,25.76
2022-08-08T11:29:41.596Z,25.75
2022-08-08T11:32:13.406Z,26.85
2022-08-08T11:34:59.000Z,25.89
2022-08-08T11:38:34.531Z,26.67
2022-08-08T11:40:22.605Z,24.89
2022-08-08T11:42:55.590Z,25.63
2022-08-08T11:45:22.884Z,25.55
2022-08-08T11:48:05.012Z,26.12
2022-08-08T11:50:33.833Z,25.97
2022-08-08T11:53:05.822Z,25.83
2022-08-08T11:55:36.532Z,25.69
2022-08-08T11:58:08.475Z,25.65
2022-08-08T12:00:50.746Z,25.12
2022-08-08T12:03:21.113Z,25.97
2022-08-08T12:05:48.504Z,25.04
2022-08-08T12:08:15.424Z,25.44
2022-08-08T12:10:50.188Z,26.99
2022-08-08T12:13:38.287Z,25.79
2022-08-08T12:16:15.751Z,25.29
2022-08-08T12:18:54.591Z,26.23
2022-08-08T12:21:59.245Z,26.06
2022-08-08T12:24:15.685Z,25.61
2022-08-08T12:26:56.969Z,26.20
2022-08-08T12:29:41.066Z,24.90
2022-08-08T12:32:20.812Z,27.42
2022-08-08T12:35:13.575Z,25.24
2022-08-08T12:38:01.335Z,25.25
2022-08-08T12:40:54.288Z,26.51
2022-08-08T12:43:43.547Z,25.97
2022-08-08T12:46:26.027Z,26.07
2022-08-08T12:49:25.160Z,25.28
2022-08-08T12:51:58.582Z,25.54
2022-08-08T12:54:47.574Z,24.83
2022-08-08T12:57:26.203Z,25.25
2022-08-08T13:00:04.877Z,25.03
2022-08-08T13:02:36.123Z,24.31
2022-08-08T13:05:25.586Z,25.45
2022-08-08T13:08:03.219Z,25.19
2022-08-08T13:10:33.549Z,24.77
2022-08-08T13:13:05.882Z,24.49
2022-08-08T13:15:35.487Z,24.75
2022-08-08T13:18:10.874Z,24.74
2022-08-08T13:20:49.516Z,25.59
2022-08-08T13:23:31.029Z,24.81
2022-08-08T13:26:04.264Z,24.27
2022-08-08T13:28:42.364Z,24.85
2022-08-08T13:31:16.473Z,24.20
2022-08-08T13:33:47.392Z,25.65
2022-08-08T13:36:17.697Z,24.34
2022-08-08T13:38:52.972Z,24.63
2022-08-08T13:41:19.600Z,24.24
2022-08-08T13:43:50.795Z,23.55
2022-08-08T13:46:27.135Z,24.26
2022-08-08T13:50:33.313Z,24.36
2022-08-08T13:52:01.981Z,24.77
2022-08-08T13:54:31.791Z,24.67
2022-08-08T13:57:11.339Z,24.30
2022-08-08T13:59:49.029Z,26.43
2022-08-08T14:02:32.826Z,25.32
2022-08-08T14:05:20.252Z,25.08
2022-08-08T14:07:52.234Z,24.65
2022-08-08T14:10:33.675Z,24.03
2022-08-08T14:13:09.873Z,23.20
2022-08-08T14:15:50.267Z,23.73
2022-08-08T14:18:36.560Z,23.74
2022-08-08T14:21:14.953Z,24.47
2022-08-08T14:24:07.543Z,23.44
2022-08-08T14:26:31.806Z,23.54
2022-08-08T14:29:00.840Z,23.25
2022-08-08T14:32:05.937Z,24.72
2022-08-08T14:34:23.385Z,23.78
2022-08-08T14:36:56.281Z,23.34
2022-08-08T14:39:24.880Z,24.53
2022-08-08T14:42:09.366Z,23.79
2022-08-08T14:44:39.543Z,22.99
2022-08-08T14:47:16.965Z,24.74
2022-08-08T14:50:06.759Z,23.75
2022-08-08T14:52:53.127Z,23.38
2022-08-08T14:55:22.622Z,24.21
2022-08-08T14:58:12.132Z,23.23
2022-08-08T15:00:43.386Z,23.21
2022-08-08T15:03:15.925Z,23.71
2022-08-08T15:05:54.620Z,22.81
2022-08-08T15:08:34.634Z,23.60
2022-08-08T15:11:04.171Z,22.32
2022-08-08T15:13:39.748Z,22.86
2022-08-08T15:16:11.678Z,23.28
2022-08-08T15:18:40.928Z,23.32
2022-08-08T15:21:16.768Z,23.04
2022-08-08T15:23:43.504Z,22.61
2022-08-08T15:26:17.162Z,23.65
2022-08-08T15:28:43.619Z,23.54
2022-08-08T15:31:11.737Z,22.91
2022-08-08T15:33:58.595Z,22.84
2022-08-08T15:36:28.892Z,22.93
2022-08-08T15:38:55.485Z,22.64
2022-08-08T15:41:24.517Z,22.65
2022-08-08T15:44:00.804Z,22.37
2022-08-08T15:46:35.048Z,23.44
2022-08-08T15:49:04.082Z,22.42
2022-08-08T15:51:33.547Z,23.65
2022-08-08T15:54:00.874Z,23.16
2022-08-08T15:56:27.396Z,22.57
2022-08-08T15:58:53.895Z,22.78
2022-08-08T16:01:20.912Z,22.76
2022-08-08T16:03:51.745Z,22.51
2022-08-08T16:06:28.458Z,22.25
2022-08-08T16:13:00.957Z,22.73
2022-08-08T16:13:21.333Z,23.32
2022-08-08T16:14:33.721Z,25.42
2022-08-08T16:17:00.937Z,24.02
2022-08-08T16:19:30.000Z,24.05
2022-08-08T16:21:57.711Z,24.16
2022-08-08T16:24:24.685Z,24.54
2022-08-08T16:26:51.593Z,24.07
2022-08-08T16:29:23.600Z,23.65
2022-08-08T16:32:12.884Z,24.36
2022-08-08T16:34:40.259Z,26.49
2022-08-08T16:37:07.157Z,27.24
2022-08-08T16:40:01.258Z,27.30
2022-08-08T16:42:20.300Z,26.76
2022-08-08T16:44:54.571Z,27.52
2022-08-08T16:47:40.262Z,27.44
2022-08-08T16:50:15.843Z,25.66
2022-08-08T16:55:22.583Z,26.68
2022-08-08T16:55:54.428Z,25.43
2022-08-08T16:58:26.519Z,26.18
2022-08-08T17:00:55.081Z,27.31
2022-08-08T17:03:24.811Z,27.65
2022-08-08T17:05:53.500Z,26.99
2022-08-08T17:08:20.381Z,28.66
2022-08-08T17:10:58.176Z,29.63
2022-08-08T17:13:27.422Z,27.41
2022-08-08T17:16:15.351Z,27.93
2022-08-08T17:18:43.075Z,28.45
2022-08-08T17:21:12.479Z,29.38
2022-08-08T17:23:58.891Z,30.00
2022-08-08T17:26:29.294Z,29.35
2022-08-08T17:28:57.176Z,27.85
2022-08-08T17:31:44.225Z,29.35
2022-08-08T17:34:48.096Z,30.03
2022-08-08T17:37:03.807Z,30.29
2022-08-08T17:40:03.495Z,29.19
2022-08-08T17:42:20.709Z,28.73
2022-08-08T17:44:49.671Z,30.42
2022-08-08T17:47:23.744Z,29.98
2022-08-08T17:49:52.521Z,29.67
2022-08-08T17:52:24.002Z,30.67
2022-08-08T17:54:55.741Z,28.96
2022-08-08T17:57:23.132Z,31.48
2022-08-08T17:59:49.857Z,30.52
2022-08-08T18:02:26.181Z,31.35
2022-08-08T18:04:57.974Z,30.80
2022-08-08T18:08:01.728Z,31.82
2022-08-08T18:10:11.154Z,30.74
2022-08-08T18:12:37.721Z,31.99
2022-08-08T18:15:07.369Z,31.58
2022-08-08T18:18:08.830Z,32.21
2022-08-08T18:20:42.917Z,32.19
2022-08-08T18:23:14.537Z,31.06
2022-08-08T18:25:42.729Z,32.71
2022-08-08T18:28:13.037Z,32.17
2022-08-08T18:30:41.544Z,32.85
2022-08-08T18:33:36.325Z,33.02
2022-08-08T18:36:03.118Z,32.96
2022-08-08T18:38:32.356Z,32.74
2022-08-08T18:41:00.995Z,33.52
2022-08-08T18:43:42.702Z,33.13
2022-08-08T18:46:55.714Z,33.13
2022-08-08T18:48:57.042Z,31.70
2022-08-08T18:51:48.594Z,31.53
2022-08-08T18:54:22.119Z,33.65
2022-08-08T18:56:49.950Z,32.34
2022-08-08T18:59:17.253Z,33.79
2022-08-08T19:02:28.984Z,33.21
2022-08-08T19:04:31.290Z,34.26
2022-08-08T19:06:57.768Z,33.10
2022-08-08T19:09:48.381Z,34.08
2022-08-08T19:12:13.436Z,33.89
2022-08-08T19:14:40.157Z,33.71
2022-08-08T19:17:10.749Z,35.21
2022-08-08T19:19:37.727Z,33.39
2022-08-08T19:22:11.040Z,35.52
2022-08-08T19:24:48.827Z,36.13
2022-08-08T19:27:55.469Z,36.09
2022-08-08T19:30:24.083Z,36.70
2022-08-08T19:32:52.766Z,35.96
2022-08-08T19:35:19.979Z,34.82
2022-08-08T19:37:57.321Z,35.69
2022-08-08T19:40:31.162Z,36.07
2022-08-08T19:42:59.584Z,35.62
2022-08-08T19:45:59.915Z,34.89
2022-08-08T19:48:29.134Z,35.32
2022-08-08T19:50:57.619Z,37.63
2022-08-08T19:53:52.124Z,37.64
2022-08-08T19:56:13.744Z,36.24
2022-08-08T19:58:42.792Z,37.18
2022-08-08T20:01:21.458Z,37.15
2022-08-08T20:04:02.570Z,37.44
2022-08-08T20:06:29.890Z,37.48
2022-08-08T20:08:56.735Z,37.36
2022-08-08T20:11:23.700Z,38.31
2022-08-08T20:14:13.905Z,38.98
2022-08-08T20:16:40.862Z,38.27
2022-08-08T20:19:10.834Z,39.95
2022-08-08T20:21:38.138Z,38.64
2022-08-08T20:24:05.932Z,41.52
2022-08-08T20:26:34.392Z,40.07
2022-08-08T20:29:02.935Z,38.27
2022-08-08T20:31:47.051Z,40.43
2022-08-08T20:34:30.411Z,39.97
2022-08-08T20:37:02.519Z,40.20
2022-08-08T20:39:33.796Z,37.91
2022-08-08T20:42:08.987Z,39.63
2022-08-08T20:44:36.077Z,38.80
2022-08-08T20:47:04.415Z,40.48
2022-08-08T20:49:40.019Z,41.97
2022-08-08T20:52:07.252Z,43.89
2022-08-08T20:54:34.327Z,44.09
2022-08-08T20:57:16.611Z,41.65
2022-08-08T20:59:44.230Z,42.25
2022-08-08T21:02:14.645Z,42.27
2022-08-08T21:04:51.847Z,41.72
2022-08-08T21:07:47.785Z,40.33
2022-08-08T21:10:12.834Z,42.50
2022-08-08T21:12:44.286Z,42.93
2022-08-08T21:15:16.701Z,42.93
2022-08-08T21:17:59.390Z,43.43
2022-08-08T21:20:34.117Z,41.46
2022-08-08T21:23:02.312Z,43.18
2022-08-08T21:25:29.162Z,43.93
2022-08-08T21:28:09.701Z,43.05
2022-08-08T21:30:49.435Z,44.55
2022-08-08T21:33:16.499Z,42.91
2022-08-08T21:36:14.202Z,40.88
2022-08-08T21:38:29.852Z,43.14
2022-08-08T21:40:57.811Z,43.57
2022-08-08T21:43:33.498Z,43.31
2022-08-08T21:48:04.549Z,43.39
2022-08-08T21:48:53.190Z,42.03
2022-08-08T21:54:22.740Z,42.34
2022-08-08T21:54:33.126Z,44.63
2022-08-08T21:57:00.400Z,44.39
2022-08-08T21:59:28.313Z,43.69
2022-08-08T22:02:10.938Z,42.59
2022-08-08T22:04:39.013Z,45.10
2022-08-08T22:07:05.563Z,44.68
2022-08-08T22:09:37.594Z,47.07
2022-08-08T22:12:09.596Z,45.26
2022-08-08T22:14:36.599Z,44.81
2022-08-08T22:17:03.788Z,43.44
2022-08-08T22:19:30.450Z,44.13
2022-08-08T22:22:17.725Z,46.00
2022-08-08T22:24:44.454Z,44.95
2022-08-08T22:27:11.280Z,43.99
2022-08-08T22:29:59.370Z,47.54
2022-08-08T22:32:28.280Z,46.68
2022-08-08T22:34:54.727Z,47.30
2022-08-08T22:37:27.711Z,46.16
2022-08-08T22:40:11.799Z,45.66
2022-08-08T22:42:43.246Z,45.85
2022-08-08T22:45:13.606Z,44.96
2022-08-08T22:47:48.539Z,46.65
2022-08-08T22:50:26.917Z,48.20
2022-08-08T22:54:30.756Z,46.99
2022-08-08T22:55:58.065Z,45.64
2022-08-08T22:58:28.877Z,45.17
2022-08-08T23:00:59.747Z,44.57
2022-08-08T23:03:34.368Z,45.81
2022-08-08T23:06:13.768Z,44.79
2022-08-08T23:08:44.703Z,46.34
2022-08-08T23:11:21.451Z,45.07
2022-08-08T23:13:51.665Z,46.14
2022-08-08T23:16:39.287Z,46.86
2022-08-08T23:19:09.383Z,45.40
2022-08-08T23:21:35.888Z,46.41
2022-08-08T23:24:05.011Z,47.73
2022-08-08T23:26:31.544Z,46.37
2022-08-08T23:28:58.004Z,47.25
2022-08-08T23:31:24.652Z,46.31
2022-08-08T23:34:16.726Z,48.33
2022-08-08T23:36:38.958Z,46.93
2022-08-08T23:39:07.503Z,46.84
2022-08-08T23:41:41.687Z,47.09
2022-08-08T23:44:12.507Z,46.79
2022-08-08T23:49:02.105Z,46.32
2022-08-08T23:49:25.546Z,46.30
2022-08-08T23:52:05.239Z,45.98
2022-08-08T23:54:43.600Z,46.62
2022-08-08T23:57:27.458Z,46.67
